createdAt,value
2023-05-19T00:04:48.318Z,102445.78
2023-05-19T00:14:54.918Z,102436.03
2023-05-19T00:24:58.074Z,102422.97
2023-05-19T00:35:02.192Z,102407.28
2023-05-19T00:45:07.909Z,102401.94
2023-05-19T00:55:11.080Z,102402.72
2023-05-19T01:05:15.164Z,102410.69
2023-05-19T01:15:17.609Z,102405.38
2023-05-19T01:25:19.188Z,102409.94
2023-05-19T01:35:20.623Z,102403.69
2023-05-19T01:45:24.848Z,102400.19
2023-05-19T01:55:28.705Z,102394.03
2023-05-19T02:05:32.350Z,102387.13
2023-05-19T02:15:33.778Z,102381.78
2023-05-19T02:25:39.253Z,102380.94
2023-05-19T02:35:41.682Z,102378.34
2023-05-19T02:45:51.201Z,102365.25
2023-05-19T02:55:52.554Z,102367.09
2023-05-19T03:05:56.366Z,102357.44
2023-05-19T03:15:58.108Z,102371.38
2023-05-19T03:26:01.708Z,102372.34
2023-05-19T03:36:04.929Z,102376.69
2023-05-19T03:46:07.063Z,102382.84
2023-05-19T03:56:10.799Z,102386.38
2023-05-19T04:06:13.522Z,102371.56
2023-05-19T04:16:15.900Z,102381.97
2023-05-19T04:26:39.561Z,102372.44
2023-05-19T04:36:53.194Z,102374.13
2023-05-19T04:46:55.004Z,102377.59
2023-05-19T04:56:56.400Z,102388.81
2023-05-19T05:06:59.633Z,102386.91
2023-05-19T05:17:01.037Z,102390.06
2023-05-19T05:27:06.389Z,102393.47
2023-05-19T05:37:07.834Z,102397.41
2023-05-19T05:47:09.155Z,102398.28
2023-05-19T05:57:12.358Z,102391.25
2023-05-19T06:07:13.690Z,102401.59
2023-05-19T06:17:15.044Z,102406.06
2023-05-19T06:27:16.585Z,102405.97
2023-05-19T06:37:19.920Z,102409.50
2023-05-19T06:47:21.353Z,102404.97
2023-05-19T06:57:28.940Z,102408.28
2023-05-19T07:07:33.197Z,102410.03
2023-05-19T07:17:34.669Z,102399.34
2023-05-19T07:27:36.105Z,102409.69
2023-05-19T07:37:38.075Z,102402.72
2023-05-19T07:47:39.545Z,102404.69
2023-05-19T07:57:43.639Z,102396.78
2023-05-19T08:07:45.036Z,102391.66
2023-05-19T08:17:46.464Z,102384.56
2023-05-19T08:27:47.884Z,102376.75
2023-05-19T08:37:50.219Z,102374.13
2023-05-19T08:47:51.635Z,102364.47
2023-05-19T08:57:56.048Z,102346.09
2023-05-19T09:07:57.472Z,102340.75
2023-05-19T09:18:03.024Z,102333.75
2023-05-19T09:28:04.477Z,102326.84
2023-05-19T09:38:06.927Z,102323.41
2023-05-19T09:48:08.281Z,102315.47
2023-05-19T09:58:12.118Z,102313.91
2023-05-19T10:08:15.383Z,102318.19
2023-05-19T10:18:22.967Z,102305.97
2023-05-19T10:28:33.378Z,102312.09
2023-05-19T10:38:38.118Z,102296.25
2023-05-19T10:58:56.708Z,102283.13
2023-05-19T11:09:05.621Z,102282.31
2023-05-19T11:19:14.421Z,102274.34
2023-05-19T11:29:41.958Z,102279.59
2023-05-19T11:39:49.101Z,102270.00
2023-05-19T11:49:53.765Z,102269.06
2023-05-19T11:59:57.137Z,102249.72
2023-05-19T12:10:10.920Z,102230.53
2023-05-19T12:20:14.647Z,102234.03
2023-05-19T12:30:20.223Z,102242.78
2023-05-19T12:40:28.164Z,102215.63
2023-05-19T12:50:32.849Z,102207.66
2023-05-19T13:00:36.169Z,102205.06
2023-05-19T13:10:41.238Z,102191.06
2023-05-19T13:20:49.338Z,102186.66
2023-05-19T13:30:58.574Z,102173.47
2023-05-19T13:41:06.019Z,102174.41
2023-05-19T13:51:20.335Z,102169.16
2023-05-19T14:01:22.698Z,102164.69
2023-05-19T14:11:31.334Z,102156.00
2023-05-19T14:33:00.318Z,102146.09
2023-05-19T14:42:25.934Z,102150.31
2023-05-19T14:52:34.291Z,102148.72
2023-05-19T15:03:06.403Z,102136.47
2023-05-19T15:13:07.306Z,102137.06
2023-05-19T15:44:02.677Z,102127.53
2023-05-19T18:19:49.610Z,102079.59
2023-05-19T18:32:38.834Z,102086.50
2023-05-19T19:53:40.482Z,102157.31
2023-05-19T20:03:46.230Z,102165.28
2023-05-19T20:14:12.921Z,102166.75
2023-05-19T20:24:19.380Z,102177.34
2023-05-19T20:44:43.444Z,102172.19
2023-05-19T20:54:45.514Z,102178.19
2023-05-19T21:04:49.240Z,102179.16
2023-05-19T21:14:53.339Z,102176.47
2023-05-19T21:24:59.012Z,102185.25
2023-05-19T21:35:07.787Z,102187.06
2023-05-19T21:45:17.062Z,102188.16
2023-05-19T21:55:18.788Z,102187.06
2023-05-19T22:05:25.886Z,102194.34
2023-05-19T22:25:42.623Z,102196.88
2023-05-19T22:35:52.281Z,102188.09
2023-05-19T22:45:55.351Z,102178.56
2023-05-19T22:55:56.903Z,102189.06
2023-05-19T23:05:58.369Z,102174.25
2023-05-19T23:16:01.669Z,102185.59
2023-05-19T23:26:04.708Z,102192.78
2023-05-19T23:36:07.354Z,102193.59
2023-05-19T23:46:08.938Z,102183.97
2023-05-19T23:56:12.845Z,102195.34
